createdAt,value
2022-07-27T05:26:08.754Z,14.30
2022-07-27T05:31:10.666Z,14.50
2022-07-27T05:36:12.636Z,14.50
2022-07-27T05:41:14.639Z,14.60
2022-07-27T05:46:17.251Z,14.70
2022-07-27T05:51:20.405Z,14.80
2022-07-27T05:56:22.389Z,14.90
2022-07-27T06:01:24.884Z,15.00
2022-07-27T06:06:45.766Z,15.10
2022-07-27T06:11:47.743Z,15.20
2022-07-27T06:16:49.958Z,15.40
2022-07-27T06:21:53.960Z,15.40
2022-07-27T06:26:56.552Z,15.50
2022-07-27T06:31:58.595Z,15.60
2022-07-27T06:37:01.654Z,15.80
2022-07-27T06:42:03.888Z,15.90
2022-07-27T06:47:06.217Z,15.90
2022-07-27T06:52:08.135Z,16.00
2022-07-27T06:57:10.675Z,16.10
2022-07-27T07:02:12.542Z,16.20
2022-07-27T07:07:14.542Z,16.20
2022-07-27T07:12:18.383Z,16.30
2022-07-27T07:17:20.351Z,16.20
2022-07-27T07:22:23.029Z,16.20
2022-07-27T07:27:25.809Z,16.30
2022-07-27T07:32:33.117Z,16.40
2022-07-27T07:37:35.824Z,16.50
2022-07-27T07:43:00.262Z,16.50
2022-07-27T07:48:02.393Z,16.50
2022-07-27T07:53:04.496Z,16.60
2022-07-27T07:58:06.619Z,16.60
2022-07-27T08:03:08.688Z,16.70
2022-07-27T08:08:10.741Z,16.80
2022-07-27T08:13:14.201Z,16.90
2022-07-27T08:18:18.073Z,17.00
2022-07-27T08:23:20.160Z,17.20
2022-07-27T08:28:22.174Z,17.20
2022-07-27T08:33:24.535Z,17.20
2022-07-27T08:38:27.587Z,17.20
2022-07-27T08:43:31.057Z,17.30
2022-07-27T08:48:33.146Z,17.40
2022-07-27T08:53:52.402Z,17.40
2022-07-27T08:58:54.863Z,17.50
2022-07-27T09:03:56.841Z,17.60
2022-07-27T09:08:59.917Z,17.70
2022-07-27T09:14:04.219Z,17.70
2022-07-27T09:19:11.142Z,17.90
2022-07-27T09:24:44.191Z,18.00
2022-07-27T09:29:37.627Z,18.00
2022-07-27T09:34:39.640Z,18.10
2022-07-27T09:39:41.659Z,18.10
2022-07-27T09:44:45.241Z,18.10
2022-07-27T09:49:48.445Z,18.30
2022-07-27T09:54:50.929Z,18.50
2022-07-27T10:00:10.905Z,18.60
2022-07-27T10:05:16.869Z,18.70
2022-07-27T10:10:19.636Z,18.80
2022-07-27T10:15:22.704Z,18.80
2022-07-27T10:20:24.988Z,18.80
2022-07-27T10:25:37.509Z,18.80
2022-07-27T10:30:40.996Z,18.90
2022-07-27T10:35:43.757Z,18.90
2022-07-27T10:40:45.834Z,19.00
2022-07-27T10:46:01.612Z,19.40
2022-07-27T10:51:10.106Z,19.80
2022-07-27T10:56:12.197Z,20.20
2022-07-27T11:01:15.857Z,20.60
2022-07-27T11:06:39.857Z,21.20
2022-07-27T11:11:50.076Z,21.80
2022-07-27T11:16:55.823Z,21.90
2022-07-27T11:21:58.661Z,21.70
2022-07-27T11:27:00.643Z,21.40
2022-07-27T11:32:19.937Z,21.10
2022-07-27T11:37:25.338Z,20.90
2022-07-27T11:42:40.184Z,20.80
2022-07-27T11:47:42.312Z,21.30
2022-07-27T11:52:44.338Z,21.20
2022-07-27T11:57:46.332Z,21.30
2022-07-27T12:02:52.153Z,21.30
2022-07-27T12:07:54.766Z,21.70
2022-07-27T12:12:57.229Z,22.10
2022-07-27T12:17:59.337Z,22.50
2022-07-27T12:23:09.046Z,23.10
2022-07-27T12:28:18.006Z,23.70
2022-07-27T12:33:37.870Z,23.40
2022-07-27T12:38:49.825Z,22.80
2022-07-27T12:44:18.230Z,22.60
2022-07-27T12:49:25.391Z,22.60
2022-07-27T12:54:32.678Z,22.40
2022-07-27T12:59:34.679Z,22.90
2022-07-27T13:04:36.986Z,23.30
2022-07-27T13:10:03.278Z,23.00
2022-07-27T13:15:02.353Z,23.00
2022-07-27T13:20:08.156Z,23.50
2022-07-27T13:25:15.984Z,23.50
2022-07-27T13:30:19.489Z,23.40
2022-07-27T13:35:21.594Z,22.90
2022-07-27T13:40:23.726Z,23.30
2022-07-27T13:45:25.762Z,22.90
2022-07-27T13:50:28.281Z,22.50
2022-07-27T13:55:30.197Z,22.40
2022-07-27T14:00:32.044Z,22.80
2022-07-27T14:05:34.925Z,22.90
2022-07-27T14:10:41.524Z,22.60
2022-07-27T14:15:54.355Z,22.30
2022-07-27T14:21:06.148Z,21.90
2022-07-27T14:26:09.302Z,21.60
2022-07-27T14:31:12.468Z,21.60
2022-07-27T14:36:15.205Z,22.30
2022-07-27T14:41:17.619Z,22.90
2022-07-27T14:46:19.699Z,23.30
2022-07-27T14:51:21.775Z,23.40
2022-07-27T14:56:23.896Z,23.40
2022-07-27T15:01:26.044Z,23.20
2022-07-27T15:06:28.992Z,23.20
2022-07-27T15:11:33.077Z,23.50
2022-07-27T15:16:35.420Z,23.60
2022-07-27T15:21:37.676Z,23.50
2022-07-27T15:26:40.006Z,23.20
2022-07-27T15:31:42.447Z,22.70
2022-07-27T15:36:48.594Z,22.30
2022-07-27T15:41:53.951Z,22.20
2022-07-27T15:46:55.953Z,22.00
2022-07-27T15:51:58.043Z,21.90
2022-07-27T15:57:03.244Z,21.70
2022-07-27T16:02:05.258Z,21.40
2022-07-27T16:07:07.348Z,21.30
2022-07-27T16:12:09.633Z,21.10
2022-07-27T16:17:11.571Z,21.10
2022-07-27T16:22:13.644Z,21.10
2022-07-27T16:27:15.707Z,21.00
2022-07-27T16:32:18.032Z,21.10
2022-07-27T16:37:20.074Z,21.00
2022-07-27T16:42:22.058Z,21.00
2022-07-27T16:47:24.100Z,21.00
2022-07-27T16:52:29.558Z,21.00
2022-07-27T16:57:31.889Z,20.90
2022-07-27T17:02:34.490Z,21.00
2022-07-27T17:07:36.899Z,21.00
2022-07-27T17:12:39.900Z,21.00
2022-07-27T17:17:46.196Z,21.00
2022-07-27T17:22:48.544Z,21.00
2022-07-27T17:27:52.101Z,21.00
2022-07-27T17:32:57.265Z,21.00
2022-07-27T17:38:07.358Z,20.90
2022-07-27T17:43:14.122Z,20.90
2022-07-27T17:48:42.405Z,20.90
2022-07-27T17:53:45.839Z,20.80
2022-07-27T17:58:48.393Z,20.70
2022-07-27T18:03:51.686Z,20.70
2022-07-27T18:08:55.708Z,20.60
2022-07-27T18:13:58.610Z,20.40
2022-07-27T18:19:02.093Z,20.50
2022-07-27T18:24:04.659Z,20.50
2022-07-27T18:29:07.641Z,20.50
2022-07-27T18:34:13.187Z,20.40
2022-07-27T18:39:17.845Z,20.20
2022-07-27T18:44:21.012Z,20.10
2022-07-27T18:49:23.566Z,20.00
2022-07-27T18:54:25.975Z,19.90
2022-07-27T18:59:28.331Z,19.90
2022-07-27T19:04:31.709Z,19.80
2022-07-27T19:09:36.097Z,19.70
2022-07-27T19:14:39.088Z,19.60
2022-07-27T19:19:41.203Z,19.50
2022-07-27T19:24:43.547Z,19.40
2022-07-27T19:29:46.809Z,19.30
2022-07-27T19:34:51.823Z,19.20
2022-07-27T19:40:02.625Z,19.10
2022-07-27T19:45:08.884Z,19.10
2022-07-27T19:50:11.412Z,19.00
2022-07-27T19:55:18.428Z,18.90
2022-07-27T20:00:21.061Z,18.70
2022-07-27T20:05:23.347Z,18.60
2022-07-27T20:10:40.030Z,18.60
2022-07-27T20:15:42.226Z,18.50
